Time,TemperatureF,DewpointF,PressureIn,WindDirection,WindDirectionDegrees,WindSpeedMPH,WindSpeedGustMPH,Humidity,HourlyPrecipIn,Conditions,Clouds,dailyrainin,SolarRadiationWatts/m^2,SoftwareType,DateUTC
2013-08-20 00:04:00,76.6,73.4,29.91,ESE,113,0.0,0.0,90,0.00,,,0.00,0.0,meteobridge,2013-08-20 05:04:00,
2013-08-20 00:10:00,76.5,73.2,29.91,ESE,113,0.0,0.0,90,0.00,,,0.00,0.0,meteobridge,2013-08-20 05:10:00,
2013-08-20 00:15:00,76.5,73.2,29.91,ESE,113,0.0,0.0,90,0.00,,,0.00,0.0,meteobridge,2013-08-20 05:15:00,
2013-08-20 00:20:00,76.3,73.0,29.91,ESE,113,0.0,0.0,90,0.00,,,0.00,0.0,meteobridge,2013-08-20 05:20:00,
2013-08-20 00:25:00,76.3,73.0,29.91,ESE,113,0.0,0.0,90,0.00,,,0.00,0.0,meteobridge,2013-08-20 05:25:00,
2013-08-20 00:30:00,76.3,73.4,29.91,ESE,114,0.0,0.0,91,0.00,,,0.00,0.0,meteobridge,2013-08-20 05:30:00,
2013-08-20 00:35:00,76.1,73.2,29.91,ESE,117,0.0,0.0,91,0.00,,,0.00,0.0,meteobridge,2013-08-20 05:35:00,
2013-08-20 00:41:00,75.9,73.0,29.91,ESE,117,0.0,0.0,91,0.00,,,0.00,0.0,meteobridge,2013-08-20 05:41:00,
2013-08-20 00:46:00,75.7,72.9,29.91,ESE,117,0.0,0.0,91,0.00,,,0.00,0.0,meteobridge,2013-08-20 05:46:00,
2013-08-20 00:51:00,75.6,72.7,29.91,ESE,117,0.0,0.0,91,0.00,,,0.00,0.0,meteobridge,2013-08-20 05:51:00,
2013-08-20 00:56:00,75.6,72.7,29.91,ESE,117,0.0,0.0,91,0.00,,,0.00,0.0,meteobridge,2013-08-20 05:56:00,
2013-08-20 01:01:00,75.6,72.7,29.91,ESE,117,0.0,0.0,91,0.00,,,0.00,0.0,meteobridge,2013-08-20 06:01:00,
2013-08-20 01:07:00,75.4,72.9,29.91,ESE,117,0.0,0.0,92,0.00,,,0.00,0.0,meteobridge,2013-08-20 06:07:00,
2013-08-20 01:12:00,75.2,72.7,29.91,ESE,117,0.0,0.0,92,0.00,,,0.00,0.0,meteobridge,2013-08-20 06:12:00,
2013-08-20 01:17:00,75.2,72.7,29.91,ESE,117,0.0,0.0,92,0.00,,,0.00,0.0,meteobridge,2013-08-20 06:17:00,
2013-08-20 01:22:00,75.2,72.7,29.91,ESE,117,0.0,0.0,92,0.00,,,0.00,0.0,meteobridge,2013-08-20 06:22:00,
2013-08-20 01:27:00,75.4,73.2,29.91,ESE,117,0.0,2.0,93,0.00,,,0.00,0.0,meteobridge,2013-08-20 06:27:00,
2013-08-20 01:32:00,75.4,72.9,29.91,ESE,120,0.0,0.9,92,0.00,,,0.00,0.0,meteobridge,2013-08-20 06:32:00,
2013-08-20 01:37:00,75.2,73.0,29.91,SE,128,0.0,0.0,93,0.00,,,0.00,0.0,meteobridge,2013-08-20 06:37:00,
2013-08-20 01:43:00,75.2,73.0,29.91,SE,134,0.0,0.9,93,0.00,,,0.00,0.0,meteobridge,2013-08-20 06:43:00,
2013-08-20 01:48:00,75.4,73.2,29.91,SE,144,0.0,0.0,93,0.00,,,0.00,0.0,meteobridge,2013-08-20 06:48:00,
2013-08-20 01:53:00,75.4,73.2,29.91,SE,144,0.0,0.0,93,0.00,,,0.00,0.0,meteobridge,2013-08-20 06:53:00,
2013-08-20 01:58:00,75.6,73.4,29.91,SE,143,0.0,0.9,93,0.00,,,0.00,0.0,meteobridge,2013-08-20 06:58:00,
2013-08-20 02:03:00,75.6,73.4,29.90,SE,146,0.0,0.0,93,0.00,,,0.00,0.0,meteobridge,2013-08-20 07:03:00,
2013-08-20 02:08:00,75.7,73.6,29.90,SE,139,0.0,0.0,93,0.00,,,0.00,0.0,meteobridge,2013-08-20 07:08:00,
2013-08-20 02:13:00,75.7,73.6,29.90,SE,142,0.0,0.0,93,0.00,,,0.00,0.0,meteobridge,2013-08-20 07:13:00,
2013-08-20 02:19:00,75.7,73.6,29.90,SE,144,0.0,0.0,93,0.00,,,0.00,0.0,meteobridge,2013-08-20 07:19:00,
2013-08-20 02:24:00,75.6,73.4,29.90,SSE,149,0.0,0.0,93,0.00,,,0.00,0.0,meteobridge,2013-08-20 07:24:00,
2013-08-20 02:29:00,75.6,73.4,29.90,SSE,149,0.0,0.0,93,0.00,,,0.00,0.0,meteobridge,2013-08-20 07:29:00,
2013-08-20 02:34:00,75.6,73.4,29.90,SSE,148,0.0,0.0,93,0.00,,,0.00,0.0,meteobridge,2013-08-20 07:34:00,
2013-08-20 02:39:00,75.4,73.2,29.90,SSE,148,0.0,0.0,93,0.00,,,0.00,0.0,meteobridge,2013-08-20 07:39:00,
2013-08-20 02:44:00,75.4,73.2,29.90,SSE,148,0.0,0.0,93,0.00,,,0.00,0.0,meteobridge,2013-08-20 07:44:00,
2013-08-20 02:49:00,75.4,73.2,29.90,SSE,148,0.0,0.0,93,0.00,,,0.00,0.0,meteobridge,2013-08-20 07:49:00,
2013-08-20 02:54:00,75.0,72.9,29.90,SSE,148,0.0,0.0,93,0.00,,,0.00,0.0,meteobridge,2013-08-20 07:54:00,
2013-08-20 03:00:00,74.5,72.3,29.90,SE,146,0.0,0.0,93,0.00,,,0.00,0.0,meteobridge,2013-08-20 08:00:00,
2013-08-20 03:05:00,74.1,72.0,29.90,SE,146,0.0,0.0,93,0.00,,,0.00,0.0,meteobridge,2013-08-20 08:05:00,
2013-08-20 03:10:00,74.1,72.0,29.90,SE,146,0.0,0.0,93,0.00,,,0.00,0.0,meteobridge,2013-08-20 08:10:00,
2013-08-20 03:15:00,74.1,72.0,29.90,SE,146,0.0,0.0,93,0.00,,,0.00,0.0,meteobridge,2013-08-20 08:15:00,
2013-08-20 03:20:00,73.9,71.8,29.90,SE,143,0.0,0.0,93,0.00,,,0.00,0.0,meteobridge,2013-08-20 08:20:00,
2013-08-20 03:25:00,73.6,71.4,29.90,SE,143,0.0,0.0,93,0.00,,,0.00,0.0,meteobridge,2013-08-20 08:25:00,
2013-08-20 03:30:00,73.2,71.1,29.90,SE,143,0.0,0.0,93,0.00,,,0.00,0.0,meteobridge,2013-08-20 08:30:00,
2013-08-20 03:35:00,73.2,71.4,29.90,SE,143,0.0,0.0,94,0.00,,,0.00,0.0,meteobridge,2013-08-20 08:35:00,
2013-08-20 03:41:00,73.0,71.2,29.90,SE,143,0.0,0.0,94,0.00,,,0.00,0.0,meteobridge,2013-08-20 08:41:00,
2013-08-20 03:46:00,73.0,71.2,29.90,SE,143,0.0,0.0,94,0.00,,,0.00,0.0,meteobridge,2013-08-20 08:46:00,
2013-08-20 03:51:00,73.0,71.2,29.90,SE,143,0.0,0.0,94,0.00,,,0.00,0.0,meteobridge,2013-08-20 08:51:00,
2013-08-20 03:56:00,73.0,71.2,29.90,SE,143,0.0,0.0,94,0.00,,,0.00,0.0,meteobridge,2013-08-20 08:56:00,
2013-08-20 04:02:00,73.0,71.2,29.90,SE,143,0.0,0.0,94,0.00,,,0.00,0.0,meteobridge,2013-08-20 09:02:00,
2013-08-20 04:07:00,72.9,71.4,29.90,SE,143,0.0,0.0,95,0.00,,,0.00,0.0,meteobridge,2013-08-20 09:07:00,
2013-08-20 04:12:00,72.9,71.4,29.90,SE,143,0.0,0.0,95,0.00,,,0.00,0.0,meteobridge,2013-08-20 09:12:00,
2013-08-20 04:17:00,73.0,71.6,29.89,SE,142,0.0,0.0,95,0.00,,,0.00,0.0,meteobridge,2013-08-20 09:17:00,
2013-08-20 04:22:00,73.0,71.6,29.89,SE,138,0.0,0.0,95,0.00,,,0.00,0.0,meteobridge,2013-08-20 09:22:00,
2013-08-20 04:27:00,73.0,71.6,29.89,ENE,67,0.0,0.0,95,0.00,,,0.00,0.0,meteobridge,2013-08-20 09:27:00,
2013-08-20 04:33:00,73.0,71.6,29.90,ENE,67,0.0,0.0,95,0.00,,,0.00,0.0,meteobridge,2013-08-20 09:33:00,
2013-08-20 04:38:00,73.2,71.8,29.90,ENE,61,0.0,0.0,95,0.00,,,0.00,0.0,meteobridge,2013-08-20 09:38:00,
2013-08-20 04:43:00,73.2,71.8,29.90,ENE,61,0.0,0.0,95,0.00,,,0.00,0.0,meteobridge,2013-08-20 09:43:00,
2013-08-20 04:49:00,73.2,71.8,29.90,ENE,61,0.0,0.0,95,0.00,,,0.00,0.0,meteobridge,2013-08-20 09:49:00,
2013-08-20 04:54:00,73.2,71.8,29.90,ENE,61,0.0,0.0,95,0.00,,,0.00,0.0,meteobridge,2013-08-20 09:54:00,
2013-08-20 05:00:00,73.2,71.8,29.91,ENE,61,0.0,0.0,95,0.00,,,0.00,0.0,meteobridge,2013-08-20 10:00:00,
2013-08-20 05:05:00,73.2,71.8,29.91,ENE,61,0.0,0.0,95,0.00,,,0.00,0.0,meteobridge,2013-08-20 10:05:00,
2013-08-20 05:10:00,73.2,71.8,29.91,ENE,61,0.0,0.0,95,0.00,,,0.00,0.0,meteobridge,2013-08-20 10:10:00,
2013-08-20 05:15:00,73.4,72.0,29.90,ENE,61,0.0,0.0,95,0.00,,,0.00,0.0,meteobridge,2013-08-20 10:15:00,
2013-08-20 05:21:00,73.4,72.0,29.90,ENE,61,0.0,0.0,95,0.00,,,0.00,0.0,meteobridge,2013-08-20 10:21:00,
2013-08-20 05:26:00,73.4,72.0,29.90,ENE,61,0.0,0.0,95,0.00,,,0.00,0.0,meteobridge,2013-08-20 10:26:00,
2013-08-20 05:31:00,73.6,72.3,29.90,ENE,61,0.0,0.0,96,0.00,,,0.00,0.0,meteobridge,2013-08-20 10:31:00,
2013-08-20 05:36:00,73.8,72.5,29.90,ENE,61,0.0,0.0,96,0.00,,,0.00,0.0,meteobridge,2013-08-20 10:36:00,
2013-08-20 05:42:00,73.6,72.1,29.90,ENE,61,0.0,0.0,95,0.00,,,0.00,0.0,meteobridge,2013-08-20 10:42:00,
2013-08-20 05:47:00,73.8,72.5,29.90,ENE,61,0.0,0.0,96,0.00,,,0.00,0.0,meteobridge,2013-08-20 10:47:00,
2013-08-20 05:52:00,73.8,72.5,29.90,ENE,61,0.0,0.0,96,0.00,,,0.00,0.0,meteobridge,2013-08-20 10:52:00,
2013-08-20 05:57:00,73.9,72.7,29.90,ENE,61,0.0,0.0,96,0.00,,,0.00,0.0,meteobridge,2013-08-20 10:57:00,
2013-08-20 06:03:00,73.9,72.7,29.90,ENE,61,0.0,0.0,96,0.00,,,0.00,0.0,meteobridge,2013-08-20 11:03:00,
2013-08-20 06:08:00,74.1,72.9,29.90,ENE,61,0.0,0.0,96,0.00,,,0.00,0.0,meteobridge,2013-08-20 11:08:00,
2013-08-20 06:13:00,74.5,73.2,29.90,ENE,61,0.0,0.0,96,0.00,,,0.00,0.0,meteobridge,2013-08-20 11:13:00,
2013-08-20 06:18:00,74.5,73.2,29.91,ENE,61,0.0,0.0,96,0.00,,,0.00,0.0,meteobridge,2013-08-20 11:18:00,
2013-08-20 06:23:00,74.5,73.2,29.91,ENE,61,0.0,0.0,96,0.00,,,0.00,0.0,meteobridge,2013-08-20 11:23:00,
2013-08-20 06:28:00,74.3,73.0,29.91,ENE,61,0.0,0.0,96,0.00,,,0.00,0.0,meteobridge,2013-08-20 11:28:00,
2013-08-20 06:33:00,74.3,73.0,29.91,ENE,61,0.0,0.0,96,0.00,,,0.00,0.0,meteobridge,2013-08-20 11:33:00,
2013-08-20 06:38:00,74.5,73.2,29.91,ENE,61,0.0,0.0,96,0.00,,,0.00,0.0,meteobridge,2013-08-20 11:38:00,
2013-08-20 06:44:00,74.5,73.2,29.91,ENE,57,0.0,0.0,96,0.00,,,0.00,0.0,meteobridge,2013-08-20 11:44:00,
2013-08-20 06:49:00,74.5,73.2,29.91,East,79,0.0,0.0,96,0.00,,,0.00,0.0,meteobridge,2013-08-20 11:49:00,
2013-08-20 06:54:00,74.7,73.4,29.91,SSE,152,0.0,0.0,96,0.00,,,0.00,0.0,meteobridge,2013-08-20 11:54:00,
2013-08-20 06:59:00,74.7,73.4,29.92,SSE,157,4.0,6.0,96,0.00,,,0.00,0.0,meteobridge,2013-08-20 11:59:00,
2013-08-20 07:04:00,74.7,73.4,29.92,SE,126,12.1,12.1,96,0.00,,,0.00,5.0,meteobridge,2013-08-20 12:04:00,
2013-08-20 07:09:00,74.8,73.6,29.92,SSE,159,4.0,8.9,96,0.03,,,0.03,5.0,meteobridge,2013-08-20 12:09:00,
2013-08-20 07:14:00,74.1,72.7,29.93,ESE,117,0.0,4.9,95,0.11,,,0.11,0.0,meteobridge,2013-08-20 12:14:00,
2013-08-20 07:19:00,73.8,72.3,29.93,SSE,157,0.0,2.0,95,0.22,,,0.22,0.0,meteobridge,2013-08-20 12:19:00,
2013-08-20 07:24:00,73.6,72.1,29.93,South,187,0.0,0.0,95,0.30,,,0.30,5.0,meteobridge,2013-08-20 12:24:00,
2013-08-20 07:29:00,73.2,71.8,29.92,South,187,0.0,0.0,95,0.31,,,0.31,5.0,meteobridge,2013-08-20 12:29:00,
2013-08-20 07:34:00,73.4,72.1,29.92,South,187,0.0,0.0,96,0.31,,,0.31,7.0,meteobridge,2013-08-20 12:34:00,
2013-08-20 07:39:00,73.8,72.5,29.92,ENE,59,0.0,0.0,96,0.31,,,0.31,9.0,meteobridge,2013-08-20 12:39:00,
2013-08-20 07:44:00,73.8,72.5,29.92,ENE,59,0.0,0.0,96,0.31,,,0.31,12.0,meteobridge,2013-08-20 12:44:00,
2013-08-20 07:49:00,73.8,72.5,29.92,ENE,59,0.0,0.0,96,0.31,,,0.31,18.0,meteobridge,2013-08-20 12:49:00,
2013-08-20 07:54:00,73.8,72.5,29.92,ENE,59,0.0,0.0,96,0.31,,,0.31,32.0,meteobridge,2013-08-20 12:54:00,
2013-08-20 07:59:00,73.8,72.5,29.93,ENE,59,0.0,0.0,96,0.31,,,0.31,46.0,meteobridge,2013-08-20 12:59:00,
2013-08-20 08:05:00,73.8,72.5,29.93,ENE,59,0.0,0.0,96,0.30,,,0.31,72.0,meteobridge,2013-08-20 13:05:00,
2013-08-20 08:10:00,73.9,72.7,29.93,ENE,59,0.0,0.0,96,0.26,,,0.31,93.0,meteobridge,2013-08-20 13:10:00,
2013-08-20 08:15:00,74.1,72.9,29.93,ENE,59,0.0,0.0,96,0.18,,,0.31,107.0,meteobridge,2013-08-20 13:15:00,
2013-08-20 08:20:00,74.7,73.4,29.93,ENE,60,0.0,0.0,96,0.07,,,0.31,121.0,meteobridge,2013-08-20 13:20:00,
2013-08-20 08:25:00,75.0,73.8,29.93,ENE,60,0.0,0.0,96,0.01,,,0.31,130.0,meteobridge,2013-08-20 13:25:00,
2013-08-20 08:31:00,75.4,74.1,29.93,ENE,61,0.0,0.0,96,0.00,,,0.31,130.0,meteobridge,2013-08-20 13:31:00,
2013-08-20 08:36:00,75.6,74.3,29.93,ENE,62,0.0,0.9,96,0.00,,,0.31,134.0,meteobridge,2013-08-20 13:36:00,
2013-08-20 08:41:00,75.6,74.3,29.93,ENE,61,0.0,0.0,96,0.00,,,0.31,139.0,meteobridge,2013-08-20 13:41:00,
2013-08-20 08:46:00,75.6,74.3,29.94,ENE,62,0.0,0.0,96,0.00,,,0.31,160.0,meteobridge,2013-08-20 13:46:00,
2013-08-20 08:51:00,75.7,74.5,29.94,ENE,62,0.0,0.0,96,0.00,,,0.31,211.0,meteobridge,2013-08-20 13:51:00,
2013-08-20 08:56:00,76.5,75.6,29.94,ENE,62,0.0,0.0,97,0.00,,,0.31,232.0,meteobridge,2013-08-20 13:56:00,
2013-08-20 09:01:00,76.6,75.4,29.95,ENE,62,0.0,0.0,96,0.00,,,0.31,128.0,meteobridge,2013-08-20 14:01:00,
2013-08-20 09:07:00,75.9,74.7,29.95,ESE,108,0.0,0.0,96,0.00,,,0.31,121.0,meteobridge,2013-08-20 14:07:00,
2013-08-20 09:12:00,76.1,74.8,29.95,South,189,0.0,0.0,96,0.00,,,0.31,128.0,meteobridge,2013-08-20 14:12:00,
2013-08-20 09:17:00,76.5,75.2,29.96,South,175,0.0,0.0,96,0.00,,,0.31,267.0,meteobridge,2013-08-20 14:17:00,
2013-08-20 09:22:00,76.5,75.2,29.96,SSW,195,0.0,0.0,96,0.00,,,0.31,369.0,meteobridge,2013-08-20 14:22:00,
2013-08-20 09:27:00,76.6,75.4,29.96,SSW,195,0.0,0.0,96,0.00,,,0.31,294.0,meteobridge,2013-08-20 14:27:00,
2013-08-20 09:33:00,77.5,76.3,29.96,SSE,163,2.0,2.0,96,0.00,,,0.31,316.0,meteobridge,2013-08-20 14:33:00,
2013-08-20 09:38:00,77.5,75.9,29.96,South,182,0.0,4.0,95,0.00,,,0.31,290.0,meteobridge,2013-08-20 14:38:00,
2013-08-20 09:43:00,77.7,76.1,29.96,South,173,0.9,2.0,95,0.00,,,0.31,272.0,meteobridge,2013-08-20 14:43:00,
2013-08-20 09:48:00,77.7,75.9,29.97,South,178,0.0,4.9,94,0.01,,,0.32,207.0,meteobridge,2013-08-20 14:48:00,
2013-08-20 09:53:00,77.5,75.7,29.97,South,184,4.0,6.9,94,0.01,,,0.32,179.0,meteobridge,2013-08-20 14:53:00,
2013-08-20 09:58:00,76.6,74.5,29.97,South,187,0.0,6.0,93,0.01,,,0.32,125.0,meteobridge,2013-08-20 14:58:00,
2013-08-20 10:03:00,76.6,74.8,29.97,SSW,200,4.0,4.9,94,0.01,,,0.32,135.0,meteobridge,2013-08-20 15:03:00,
2013-08-20 10:08:00,76.6,74.8,29.97,SSW,201,0.0,4.9,94,0.04,,,0.35,137.0,meteobridge,2013-08-20 15:08:00,
2013-08-20 10:13:00,76.6,74.8,29.97,South,178,0.0,0.0,94,0.09,,,0.40,144.0,meteobridge,2013-08-20 15:13:00,
2013-08-20 10:18:00,76.6,74.8,29.97,South,171,0.0,0.0,94,0.11,,,0.42,186.0,meteobridge,2013-08-20 15:18:00,
2013-08-20 10:23:00,76.6,74.8,29.97,South,169,0.0,0.0,94,0.11,,,0.42,213.0,meteobridge,2013-08-20 15:23:00,
2013-08-20 10:29:00,76.8,75.2,29.97,South,169,0.0,0.0,95,0.11,,,0.42,206.0,meteobridge,2013-08-20 15:29:00,
2013-08-20 10:34:00,77.2,75.6,29.98,South,171,0.0,2.9,95,0.11,,,0.42,156.0,meteobridge,2013-08-20 15:34:00,
2013-08-20 10:39:00,77.2,75.6,29.98,ESE,119,2.9,6.0,95,0.11,,,0.42,109.0,meteobridge,2013-08-20 15:39:00,
2013-08-20 10:44:00,76.8,75.0,29.98,South,169,2.0,6.0,94,0.11,,,0.42,130.0,meteobridge,2013-08-20 15:44:00,
2013-08-20 10:49:00,76.5,74.8,29.98,SE,126,0.9,6.9,95,0.10,,,0.42,121.0,meteobridge,2013-08-20 15:49:00,
2013-08-20 10:54:00,76.5,74.8,29.98,SE,145,4.0,4.0,95,0.10,,,0.42,107.0,meteobridge,2013-08-20 15:54:00,
2013-08-20 10:59:00,76.5,74.8,29.98,SE,143,4.0,4.9,95,0.10,,,0.42,113.0,meteobridge,2013-08-20 15:59:00,
2013-08-20 11:04:00,76.3,74.5,29.98,SE,140,4.0,4.0,94,0.12,,,0.44,125.0,meteobridge,2013-08-20 16:04:00,
2013-08-20 11:09:00,75.9,74.3,29.98,SE,143,0.9,2.9,95,0.08,,,0.45,132.0,meteobridge,2013-08-20 16:09:00,
2013-08-20 11:14:00,75.9,74.3,29.99,SE,126,4.0,4.0,95,0.06,,,0.46,127.0,meteobridge,2013-08-20 16:14:00,
2013-08-20 11:19:00,75.9,74.3,29.99,SSE,156,2.0,6.0,95,0.06,,,0.48,109.0,meteobridge,2013-08-20 16:19:00,
2013-08-20 11:24:00,75.9,74.3,29.99,SSE,149,4.9,6.9,95,0.07,,,0.49,63.0,meteobridge,2013-08-20 16:24:00,
2013-08-20 11:29:00,75.7,74.1,30.00,SSE,149,0.0,4.0,95,0.07,,,0.49,53.0,meteobridge,2013-08-20 16:29:00,
2013-08-20 11:34:00,75.7,74.5,30.00,SE,140,0.0,0.0,96,0.08,,,0.50,62.0,meteobridge,2013-08-20 16:34:00,
2013-08-20 11:39:00,75.9,74.7,30.00,SE,139,4.9,4.9,96,0.08,,,0.50,67.0,meteobridge,2013-08-20 16:39:00,
2013-08-20 11:44:00,75.9,74.7,29.99,SSE,150,4.9,4.9,96,0.08,,,0.50,72.0,meteobridge,2013-08-20 16:44:00,
2013-08-20 11:50:00,75.7,74.1,29.99,SE,134,0.0,4.0,95,0.08,,,0.50,130.0,meteobridge,2013-08-20 16:50:00,
2013-08-20 11:55:00,75.9,74.7,29.99,ESE,105,0.0,2.0,96,0.08,,,0.50,156.0,meteobridge,2013-08-20 16:55:00,
2013-08-20 12:00:00,76.5,75.2,29.98,East,98,0.0,0.0,96,0.07,,,0.50,162.0,meteobridge,2013-08-20 17:00:00,
2013-08-20 12:05:00,76.5,75.2,29.98,East,101,0.9,0.9,96,0.06,,,0.50,171.0,meteobridge,2013-08-20 17:05:00,
2013-08-20 12:11:00,76.6,75.4,29.98,ESE,114,0.0,0.0,96,0.05,,,0.50,183.0,meteobridge,2013-08-20 17:11:00,
2013-08-20 12:16:00,76.6,75.4,29.98,ESE,117,0.0,2.9,96,0.04,,,0.50,190.0,meteobridge,2013-08-20 17:16:00,
2013-08-20 12:21:00,76.5,74.8,29.98,ESE,110,0.0,4.0,95,0.02,,,0.50,197.0,meteobridge,2013-08-20 17:21:00,
2013-08-20 12:26:00,76.6,75.4,29.98,East,92,0.0,0.0,96,0.01,,,0.50,197.0,meteobridge,2013-08-20 17:26:00,
2013-08-20 12:31:00,76.8,75.2,29.98,SE,132,0.0,0.0,95,0.01,,,0.50,192.0,meteobridge,2013-08-20 17:31:00,
2013-08-20 12:36:00,76.6,75.0,29.98,SE,144,0.0,4.0,95,0.00,,,0.50,190.0,meteobridge,2013-08-20 17:36:00,
2013-08-20 12:41:00,76.6,75.0,29.98,SE,133,0.0,0.9,95,0.00,,,0.50,163.0,meteobridge,2013-08-20 17:41:00,
2013-08-20 12:46:00,76.8,75.2,29.98,SE,138,0.0,4.9,95,0.00,,,0.50,193.0,meteobridge,2013-08-20 17:46:00,
2013-08-20 12:52:00,76.8,75.2,29.98,SSE,159,0.0,4.0,95,0.00,,,0.50,167.0,meteobridge,2013-08-20 17:52:00,
2013-08-20 12:57:00,76.8,75.2,29.98,South,175,2.0,2.9,95,0.00,,,0.50,165.0,meteobridge,2013-08-20 17:57:00,
2013-08-20 13:02:00,76.6,75.0,29.98,SSE,155,4.9,4.9,95,0.00,,,0.50,206.0,meteobridge,2013-08-20 18:02:00,
2013-08-20 13:07:00,76.6,74.8,29.98,South,171,4.9,6.0,94,0.00,,,0.50,218.0,meteobridge,2013-08-20 18:07:00,
2013-08-20 13:12:00,77.2,75.4,29.98,SSE,153,6.9,6.9,94,0.00,,,0.50,221.0,meteobridge,2013-08-20 18:12:00,
2013-08-20 13:17:00,77.2,75.0,29.98,SSE,156,4.0,6.9,93,0.00,,,0.50,163.0,meteobridge,2013-08-20 18:17:00,
2013-08-20 13:22:00,77.4,75.6,29.98,SSE,153,6.0,6.9,94,0.00,,,0.50,221.0,meteobridge,2013-08-20 18:22:00,
2013-08-20 13:27:00,77.7,75.9,29.98,SE,144,4.9,4.9,94,0.00,,,0.50,220.0,meteobridge,2013-08-20 18:27:00,
2013-08-20 13:32:00,77.7,75.6,29.98,SSE,150,0.0,4.9,93,0.00,,,0.50,190.0,meteobridge,2013-08-20 18:32:00,
2013-08-20 13:37:00,77.7,75.6,29.98,SE,140,2.9,4.0,93,0.00,,,0.50,308.0,meteobridge,2013-08-20 18:37:00,
2013-08-20 13:42:00,77.5,75.0,29.98,SE,146,0.0,4.0,92,0.00,,,0.50,323.0,meteobridge,2013-08-20 18:42:00,
2013-08-20 13:47:00,78.4,75.9,29.98,South,188,4.0,4.0,92,0.00,,,0.50,343.0,meteobridge,2013-08-20 18:47:00,
2013-08-20 13:53:00,78.4,75.6,29.98,SE,140,0.0,4.9,91,0.00,,,0.50,311.0,meteobridge,2013-08-20 18:53:00,
2013-08-20 13:58:00,78.4,75.6,29.98,SSE,164,4.9,6.0,91,0.00,,,0.50,302.0,meteobridge,2013-08-20 18:58:00,
2013-08-20 14:03:00,78.3,75.0,29.98,SE,136,0.0,6.9,90,0.00,,,0.50,294.0,meteobridge,2013-08-20 19:03:00,
2013-08-20 14:08:00,78.4,75.2,29.98,ESE,122,0.9,4.9,90,0.00,,,0.50,279.0,meteobridge,2013-08-20 19:08:00,
2013-08-20 14:13:00,78.4,75.2,29.98,SSE,165,0.0,2.9,90,0.00,,,0.50,271.0,meteobridge,2013-08-20 19:13:00,
2013-08-20 14:18:00,78.6,75.7,29.98,East,81,0.0,0.0,91,0.00,,,0.50,251.0,meteobridge,2013-08-20 19:18:00,
2013-08-20 14:23:00,78.4,75.2,29.98,SSE,148,0.0,0.0,90,0.00,,,0.50,229.0,meteobridge,2013-08-20 19:23:00,
2013-08-20 14:28:00,78.4,75.2,29.98,SE,142,0.0,0.0,90,0.00,,,0.50,206.0,meteobridge,2013-08-20 19:28:00,
2013-08-20 14:33:00,78.4,75.2,29.97,SE,134,0.0,0.0,90,0.00,,,0.50,192.0,meteobridge,2013-08-20 19:33:00,
2013-08-20 14:38:00,78.3,75.0,29.97,SE,135,0.0,0.0,90,0.00,,,0.50,153.0,meteobridge,2013-08-20 19:38:00,
2013-08-20 14:43:00,78.4,75.2,29.97,SE,134,0.0,0.0,90,0.00,,,0.50,118.0,meteobridge,2013-08-20 19:43:00,
2013-08-20 14:49:00,78.4,75.6,29.97,SE,134,0.0,0.0,91,0.01,,,0.51,90.0,meteobridge,2013-08-20 19:49:00,
2013-08-20 14:54:00,78.4,75.2,29.97,SE,134,0.0,0.0,90,0.02,,,0.52,102.0,meteobridge,2013-08-20 19:54:00,
2013-08-20 14:59:00,78.3,75.4,29.96,SE,134,0.0,0.0,91,0.02,,,0.52,181.0,meteobridge,2013-08-20 19:59:00,
2013-08-20 15:04:00,78.3,75.4,29.96,SE,134,0.0,0.0,91,0.02,,,0.52,199.0,meteobridge,2013-08-20 20:04:00,
2013-08-20 15:09:00,78.3,75.7,29.96,SE,133,0.0,0.0,92,0.02,,,0.52,185.0,meteobridge,2013-08-20 20:09:00,
2013-08-20 15:14:00,78.3,75.7,29.94,SE,133,0.0,0.0,92,0.02,,,0.52,169.0,meteobridge,2013-08-20 20:14:00,
2013-08-20 15:19:00,78.1,75.2,29.94,SE,133,0.0,0.0,91,0.02,,,0.52,158.0,meteobridge,2013-08-20 20:19:00,
2013-08-20 15:24:00,78.3,75.7,29.94,SE,133,0.0,0.0,92,0.02,,,0.52,160.0,meteobridge,2013-08-20 20:24:00,
2013-08-20 15:30:00,78.4,75.9,29.94,SE,133,0.0,0.0,92,0.02,,,0.52,169.0,meteobridge,2013-08-20 20:30:00,
2013-08-20 15:35:00,78.6,76.1,29.94,SE,133,0.0,0.0,92,0.02,,,0.52,186.0,meteobridge,2013-08-20 20:35:00,
2013-08-20 15:40:00,78.6,76.1,29.94,SE,133,0.0,0.0,92,0.02,,,0.52,213.0,meteobridge,2013-08-20 20:40:00,
2013-08-20 15:45:00,78.6,75.7,29.94,SE,133,0.0,0.0,91,0.02,,,0.52,246.0,meteobridge,2013-08-20 20:45:00,
2013-08-20 15:50:00,78.6,75.7,29.94,SE,133,0.0,0.0,91,0.00,,,0.52,269.0,meteobridge,2013-08-20 20:50:00,
2013-08-20 15:55:00,79.2,76.6,29.94,ENE,67,0.0,0.0,92,0.00,,,0.52,294.0,meteobridge,2013-08-20 20:55:00,
2013-08-20 16:00:00,79.2,76.3,29.94,NE,49,0.0,0.0,91,0.00,,,0.52,320.0,meteobridge,2013-08-20 21:00:00,
2013-08-20 16:06:00,79.2,76.3,29.94,NE,44,0.0,0.0,91,0.00,,,0.52,339.0,meteobridge,2013-08-20 21:06:00,
2013-08-20 16:11:00,79.3,76.1,29.94,NE,43,0.0,0.0,90,0.00,,,0.52,320.0,meteobridge,2013-08-20 21:11:00,
2013-08-20 16:16:00,79.9,77.0,29.94,NE,43,0.0,0.0,91,0.00,,,0.52,306.0,meteobridge,2013-08-20 21:16:00,
2013-08-20 16:21:00,79.9,76.6,29.94,NE,42,0.0,0.0,90,0.00,,,0.52,287.0,meteobridge,2013-08-20 21:21:00,
2013-08-20 16:26:00,79.9,76.3,29.94,NE,41,0.0,0.0,89,0.00,,,0.52,278.0,meteobridge,2013-08-20 21:26:00,
2013-08-20 16:32:00,79.9,76.3,29.94,NE,42,0.0,0.0,89,0.00,,,0.52,229.0,meteobridge,2013-08-20 21:32:00,
2013-08-20 16:37:00,80.1,76.5,29.94,NE,42,0.0,0.0,89,0.00,,,0.52,204.0,meteobridge,2013-08-20 21:37:00,
2013-08-20 16:42:00,80.1,76.5,29.94,NE,42,0.0,0.0,89,0.00,,,0.52,204.0,meteobridge,2013-08-20 21:42:00,
2013-08-20 16:47:00,80.2,76.6,29.93,NE,42,0.0,0.0,89,0.00,,,0.52,214.0,meteobridge,2013-08-20 21:47:00,
2013-08-20 16:52:00,80.2,76.6,29.93,NE,44,0.0,0.0,89,0.00,,,0.52,232.0,meteobridge,2013-08-20 21:52:00,
2013-08-20 16:57:00,80.2,76.3,29.93,ESE,111,0.0,0.0,88,0.00,,,0.52,241.0,meteobridge,2013-08-20 21:57:00,
2013-08-20 17:03:00,80.2,76.3,29.93,ESE,110,0.0,0.0,88,0.00,,,0.52,229.0,meteobridge,2013-08-20 22:03:00,
2013-08-20 17:08:00,80.4,76.5,29.93,ESE,110,0.0,0.0,88,0.00,,,0.52,176.0,meteobridge,2013-08-20 22:08:00,
2013-08-20 17:13:00,80.2,76.3,29.93,ESE,107,0.0,0.0,88,0.00,,,0.52,174.0,meteobridge,2013-08-20 22:13:00,
2013-08-20 17:18:00,80.2,76.1,29.93,SE,142,0.0,0.0,87,0.00,,,0.52,167.0,meteobridge,2013-08-20 22:18:00,
2013-08-20 17:23:00,80.2,76.1,29.93,East,92,0.0,0.0,87,0.00,,,0.52,158.0,meteobridge,2013-08-20 22:23:00,
2013-08-20 17:29:00,80.4,76.1,29.93,SSE,159,0.0,0.0,87,0.00,,,0.52,158.0,meteobridge,2013-08-20 22:29:00,
2013-08-20 17:34:00,80.2,75.7,29.93,SSE,147,0.0,0.0,86,0.00,,,0.52,155.0,meteobridge,2013-08-20 22:34:00,
2013-08-20 17:39:00,80.4,76.1,29.93,SE,143,0.0,0.0,87,0.00,,,0.52,146.0,meteobridge,2013-08-20 22:39:00,
2013-08-20 17:44:00,80.4,76.1,29.92,SE,142,0.0,0.0,87,0.00,,,0.52,142.0,meteobridge,2013-08-20 22:44:00,
2013-08-20 17:50:00,80.2,76.1,29.92,ESE,103,0.0,0.0,87,0.00,,,0.52,137.0,meteobridge,2013-08-20 22:50:00,
2013-08-20 17:55:00,80.2,76.1,29.92,SSE,148,0.0,0.0,87,0.00,,,0.52,130.0,meteobridge,2013-08-20 22:55:00,
2013-08-20 18:00:00,80.4,76.1,29.92,ESE,119,0.0,0.0,87,0.00,,,0.52,121.0,meteobridge,2013-08-20 23:00:00,
2013-08-20 18:05:00,80.2,76.1,29.92,ESE,105,0.0,0.0,87,0.00,,,0.52,113.0,meteobridge,2013-08-20 23:05:00,
2013-08-20 18:10:00,80.2,76.1,29.92,ESE,109,0.0,0.0,87,0.00,,,0.52,104.0,meteobridge,2013-08-20 23:10:00,
2013-08-20 18:15:00,80.1,76.1,29.92,ESE,104,0.0,0.0,88,0.00,,,0.52,93.0,meteobridge,2013-08-20 23:15:00,
2013-08-20 18:20:00,80.1,75.9,29.92,ESE,104,0.0,0.0,87,0.00,,,0.52,84.0,meteobridge,2013-08-20 23:20:00,
2013-08-20 18:26:00,79.9,75.7,29.92,East,101,0.0,0.0,87,0.00,,,0.52,79.0,meteobridge,2013-08-20 23:26:00,
2013-08-20 18:31:00,79.9,75.9,29.91,ESE,105,0.9,2.0,88,0.00,,,0.52,72.0,meteobridge,2013-08-20 23:31:00,
2013-08-20 18:36:00,79.9,75.9,29.91,ESE,105,0.0,0.0,88,0.00,,,0.52,69.0,meteobridge,2013-08-20 23:36:00,
2013-08-20 18:41:00,79.9,75.9,29.91,East,101,0.0,4.9,88,0.00,,,0.52,65.0,meteobridge,2013-08-20 23:41:00,
2013-08-20 18:47:00,79.5,75.6,29.91,ESE,104,0.0,0.0,88,0.00,,,0.52,63.0,meteobridge,2013-08-20 23:47:00,
2013-08-20 18:52:00,79.5,75.6,29.91,ESE,104,0.0,0.0,88,0.00,,,0.52,62.0,meteobridge,2013-08-20 23:52:00,
2013-08-20 18:57:00,79.5,75.9,29.91,ESE,106,0.0,2.0,89,0.00,,,0.52,62.0,meteobridge,2013-08-20 23:57:00,
2013-08-20 19:02:00,79.3,75.7,29.91,East,97,0.0,0.0,89,0.00,,,0.52,58.0,meteobridge,2013-08-21 00:02:00,
2013-08-20 19:07:00,79.3,75.7,29.91,East,94,0.0,0.9,89,0.00,,,0.52,56.0,meteobridge,2013-08-21 00:07:00,
2013-08-20 19:12:00,79.3,75.7,29.91,ESE,107,0.0,0.0,89,0.00,,,0.52,53.0,meteobridge,2013-08-21 00:12:00,
2013-08-20 19:17:00,79.3,75.7,29.91,ESE,103,0.0,0.0,89,0.00,,,0.52,47.0,meteobridge,2013-08-21 00:17:00,
2013-08-20 19:22:00,79.3,75.7,29.91,ESE,103,0.0,0.0,89,0.00,,,0.52,40.0,meteobridge,2013-08-21 00:22:00,
2013-08-20 19:27:00,79.3,76.1,29.91,ESE,106,0.0,0.0,90,0.00,,,0.52,33.0,meteobridge,2013-08-21 00:27:00,
2013-08-20 19:33:00,79.2,75.9,29.91,East,95,0.0,0.0,90,0.00,,,0.52,26.0,meteobridge,2013-08-21 00:33:00,
2013-08-20 19:38:00,79.2,75.9,29.91,ESE,116,0.0,0.0,90,0.00,,,0.52,19.0,meteobridge,2013-08-21 00:38:00,
2013-08-20 19:43:00,79.0,75.7,29.91,ESE,116,0.0,0.0,90,0.00,,,0.52,14.0,meteobridge,2013-08-21 00:43:00,
2013-08-20 19:49:00,79.0,75.7,29.91,ESE,116,0.0,0.0,90,0.00,,,0.52,11.0,meteobridge,2013-08-21 00:49:00,
2013-08-20 19:54:00,78.6,75.4,29.91,ESE,116,0.0,0.0,90,0.00,,,0.52,5.0,meteobridge,2013-08-21 00:54:00,
2013-08-20 19:59:00,78.4,75.6,29.92,ESE,116,0.0,0.0,91,0.00,,,0.52,0.0,meteobridge,2013-08-21 00:59:00,
2013-08-20 20:04:00,78.4,75.6,29.92,ESE,116,0.0,0.0,91,0.00,,,0.52,0.0,meteobridge,2013-08-21 01:04:00,
2013-08-20 20:09:00,78.3,75.4,29.92,ESE,116,0.0,0.0,91,0.00,,,0.52,0.0,meteobridge,2013-08-21 01:09:00,
2013-08-20 20:14:00,78.1,75.2,29.92,ESE,116,0.0,0.0,91,0.00,,,0.52,0.0,meteobridge,2013-08-21 01:14:00,
2013-08-20 20:19:00,78.1,75.2,29.92,ESE,116,0.0,0.0,91,0.00,,,0.52,0.0,meteobridge,2013-08-21 01:19:00,
2013-08-20 20:24:00,77.9,75.4,29.92,ESE,116,0.0,0.0,92,0.00,,,0.52,0.0,meteobridge,2013-08-21 01:24:00,
2013-08-20 20:29:00,77.7,75.2,29.92,ESE,116,0.0,0.0,92,0.00,,,0.52,0.0,meteobridge,2013-08-21 01:29:00,
2013-08-20 20:34:00,77.7,75.2,29.92,ESE,116,0.0,0.0,92,0.00,,,0.52,0.0,meteobridge,2013-08-21 01:34:00,
2013-08-20 20:39:00,77.7,75.2,29.92,ESE,116,0.0,0.0,92,0.00,,,0.52,0.0,meteobridge,2013-08-21 01:39:00,
2013-08-20 20:44:00,77.5,75.4,29.92,ESE,110,0.0,0.0,93,0.00,,,0.52,0.0,meteobridge,2013-08-21 01:44:00,
2013-08-20 20:49:00,77.4,75.2,29.92,ESE,105,0.0,0.0,93,0.00,,,0.52,0.0,meteobridge,2013-08-21 01:49:00,
2013-08-20 20:54:00,77.2,75.0,29.92,ESE,104,0.0,0.0,93,0.00,,,0.52,0.0,meteobridge,2013-08-21 01:54:00,
2013-08-20 20:59:00,77.2,75.0,29.92,ESE,104,0.0,0.0,93,0.00,,,0.52,0.0,meteobridge,2013-08-21 01:59:00,
2013-08-20 21:04:00,76.8,74.7,29.92,ESE,105,0.0,0.0,93,0.00,,,0.52,0.0,meteobridge,2013-08-21 02:04:00,
2013-08-20 21:09:00,76.8,74.7,29.92,ESE,105,0.0,0.0,93,0.00,,,0.52,0.0,meteobridge,2013-08-21 02:09:00,
2013-08-20 21:15:00,76.6,74.5,29.93,ESE,105,0.0,0.0,93,0.00,,,0.52,0.0,meteobridge,2013-08-21 02:15:00,
2013-08-20 21:20:00,76.6,74.8,29.93,ESE,105,0.0,0.0,94,0.00,,,0.52,0.0,meteobridge,2013-08-21 02:20:00,
2013-08-20 21:25:00,76.5,74.7,29.93,ESE,105,0.0,0.0,94,0.00,,,0.52,0.0,meteobridge,2013-08-21 02:25:00,
2013-08-20 21:31:00,76.3,74.5,29.94,ESE,105,0.0,0.0,94,0.00,,,0.52,0.0,meteobridge,2013-08-21 02:31:00,
2013-08-20 21:36:00,76.3,74.5,29.94,ESE,105,0.0,0.0,94,0.00,,,0.52,0.0,meteobridge,2013-08-21 02:36:00,
2013-08-20 21:41:00,76.1,74.3,29.94,ESE,105,0.0,0.0,94,0.00,,,0.52,0.0,meteobridge,2013-08-21 02:41:00,
2013-08-20 21:46:00,75.9,74.1,29.95,ESE,105,0.0,0.0,94,0.00,,,0.52,0.0,meteobridge,2013-08-21 02:46:00,
2013-08-20 21:52:00,75.9,74.1,29.95,ESE,105,0.0,0.0,94,0.00,,,0.52,0.0,meteobridge,2013-08-21 02:52:00,
2013-08-20 21:57:00,75.9,74.1,29.95,ESE,105,0.0,0.0,94,0.00,,,0.52,0.0,meteobridge,2013-08-21 02:57:00,
2013-08-20 22:02:00,75.7,73.9,29.95,ESE,105,0.0,0.0,94,0.00,,,0.52,0.0,meteobridge,2013-08-21 03:02:00,
2013-08-20 22:07:00,75.6,73.8,29.95,ESE,105,0.0,0.0,94,0.00,,,0.52,0.0,meteobridge,2013-08-21 03:07:00,
2013-08-20 22:12:00,75.6,73.8,29.95,ESE,105,0.0,0.0,94,0.00,,,0.52,0.0,meteobridge,2013-08-21 03:12:00,
2013-08-20 22:17:00,75.4,73.6,29.95,ESE,105,0.0,0.0,94,0.00,,,0.52,0.0,meteobridge,2013-08-21 03:17:00,
2013-08-20 22:22:00,75.4,73.6,29.95,ESE,105,0.0,0.0,94,0.00,,,0.52,0.0,meteobridge,2013-08-21 03:22:00,
2013-08-20 22:28:00,75.2,73.4,29.95,ESE,105,0.0,0.0,94,0.00,,,0.52,0.0,meteobridge,2013-08-21 03:28:00,
2013-08-20 22:33:00,75.0,73.2,29.95,ESE,114,0.0,0.0,94,0.00,,,0.52,0.0,meteobridge,2013-08-21 03:33:00,
2013-08-20 22:38:00,75.0,73.2,29.95,SE,144,0.0,0.0,94,0.00,,,0.52,0.0,meteobridge,2013-08-21 03:38:00,
2013-08-20 22:43:00,75.0,73.2,29.95,SE,140,0.0,0.0,94,0.00,,,0.52,0.0,meteobridge,2013-08-21 03:43:00,
2013-08-20 22:48:00,75.0,73.2,29.95,SSE,148,0.0,0.0,94,0.00,,,0.52,0.0,meteobridge,2013-08-21 03:48:00,
2013-08-20 22:53:00,74.8,73.0,29.95,SSE,148,0.0,0.0,94,0.00,,,0.52,0.0,meteobridge,2013-08-21 03:53:00,
2013-08-20 22:58:00,74.8,73.0,29.95,SSE,147,0.0,0.0,94,0.00,,,0.52,0.0,meteobridge,2013-08-21 03:58:00,
2013-08-20 23:01:00,74.8,73.0,29.96,SSE,147,0.0,0.0,94,0.00,,,0.52,0.0,meteobridge,2013-08-21 04:01:00,
2013-08-20 23:02:00,74.8,73.0,29.96,SE,146,0.0,0.0,94,0.00,,,0.52,0.0,meteobridge,2013-08-21 04:02:00,
2013-08-20 23:06:00,74.7,72.9,29.96,SE,146,0.0,0.0,94,0.00,,,0.52,0.0,meteobridge,2013-08-21 04:06:00,
2013-08-20 23:11:00,74.7,72.9,29.96,SE,146,0.0,0.0,94,0.00,,,0.52,0.0,meteobridge,2013-08-21 04:11:00,
2013-08-20 23:16:00,74.7,72.9,29.96,SE,146,0.0,0.0,94,0.00,,,0.52,0.0,meteobridge,2013-08-21 04:16:00,
2013-08-20 23:21:00,74.7,73.2,29.96,SE,146,0.0,0.0,95,0.00,,,0.52,0.0,meteobridge,2013-08-21 04:21:00,
2013-08-20 23:27:00,74.5,73.0,29.96,SE,146,0.0,0.0,95,0.00,,,0.52,0.0,meteobridge,2013-08-21 04:27:00,
2013-08-20 23:32:00,74.5,73.0,29.96,SE,146,0.0,0.0,95,0.00,,,0.52,0.0,meteobridge,2013-08-21 04:32:00,
2013-08-20 23:37:00,74.5,73.0,29.96,SE,146,0.0,0.0,95,0.00,,,0.52,0.0,meteobridge,2013-08-21 04:37:00,
2013-08-20 23:42:00,74.5,73.0,29.96,SE,146,0.0,0.0,95,0.00,,,0.52,0.0,meteobridge,2013-08-21 04:42:00,
2013-08-20 23:47:00,74.3,72.9,29.96,SE,146,0.0,0.0,95,0.00,,,0.52,0.0,meteobridge,2013-08-21 04:47:00,
2013-08-20 23:53:00,74.5,73.0,29.96,SE,146,0.0,0.0,95,0.00,,,0.52,0.0,meteobridge,2013-08-21 04:53:00,
2013-08-20 23:58:00,74.5,73.0,29.96,SE,144,0.0,0.0,95,0.00,,,0.52,0.0,meteobridge,2013-08-21 04:58:00,